createdAt,value
2023-02-05T00:00:13.714Z,23.60
2023-02-05T00:01:13.702Z,24.20
2023-02-05T00:02:13.715Z,21.30
2023-02-05T00:03:13.666Z,23.90
2023-02-05T00:04:13.721Z,22.00
2023-02-05T00:05:13.673Z,24.10
2023-02-05T00:06:13.613Z,24.00
2023-02-05T00:07:13.660Z,23.20
2023-02-05T00:08:13.584Z,23.00
2023-02-05T00:09:13.584Z,21.30
2023-02-05T00:10:13.673Z,29.40
2023-02-05T00:11:13.568Z,20.40
2023-02-05T00:12:13.551Z,24.50
2023-02-05T00:13:13.524Z,20.10
2023-02-05T00:14:13.530Z,21.50
2023-02-05T00:15:13.524Z,25.00
2023-02-05T00:16:13.527Z,23.60
2023-02-05T00:17:13.471Z,24.90
2023-02-05T00:18:13.469Z,16.30
2023-02-05T00:19:13.561Z,21.30
2023-02-05T00:20:13.433Z,23.60
2023-02-05T00:21:13.440Z,25.50
2023-02-05T00:22:13.417Z,26.40
2023-02-05T00:23:13.390Z,24.20
2023-02-05T00:24:13.375Z,22.50
2023-02-05T00:25:13.448Z,18.40
2023-02-05T00:26:13.384Z,25.00
2023-02-05T00:27:13.329Z,20.60
2023-02-05T00:28:13.468Z,21.80
2023-02-05T00:29:13.315Z,21.00
2023-02-05T00:30:13.356Z,21.00
2023-02-05T00:31:13.404Z,20.50
2023-02-05T00:32:13.350Z,21.20
2023-02-05T00:33:13.264Z,21.10
2023-02-05T00:34:13.259Z,21.40
2023-02-05T00:35:13.274Z,20.50
2023-02-05T00:36:13.226Z,18.90
2023-02-05T00:37:13.292Z,20.10
2023-02-05T00:38:13.227Z,19.90
2023-02-05T00:39:13.180Z,17.30
2023-02-05T00:40:13.244Z,18.40
2023-02-05T00:41:13.194Z,20.40
2023-02-05T00:42:13.160Z,22.60
2023-02-05T00:43:13.162Z,17.40
2023-02-05T00:44:13.127Z,22.30
2023-02-05T00:45:13.146Z,19.80
2023-02-05T00:46:13.172Z,17.60
2023-02-05T00:47:13.086Z,19.20
2023-02-05T00:48:13.095Z,17.20
2023-02-05T00:49:13.061Z,23.40
2023-02-05T00:50:13.144Z,23.20
2023-02-05T00:51:13.041Z,16.50
2023-02-05T00:52:13.089Z,19.40
2023-02-05T00:53:13.015Z,21.00
2023-02-05T00:54:12.995Z,17.10
2023-02-05T00:55:13.040Z,19.40
2023-02-05T00:56:12.986Z,17.40
2023-02-05T00:57:12.984Z,23.50
2023-02-05T00:58:12.993Z,16.80
2023-02-05T00:59:12.926Z,19.90
2023-02-05T01:00:12.908Z,17.60
2023-02-05T01:01:12.937Z,16.70
2023-02-05T01:02:12.937Z,17.60
2023-02-05T01:03:12.893Z,18.60
2023-02-05T01:04:12.862Z,18.40
2023-02-05T01:05:12.880Z,14.20
2023-02-05T01:06:12.858Z,22.80
2023-02-05T01:07:12.822Z,20.60
2023-02-05T01:08:12.815Z,22.90
2023-02-05T01:09:12.789Z,18.80
2023-02-05T01:10:12.877Z,20.00
2023-02-05T01:11:12.791Z,19.20
2023-02-05T01:12:12.771Z,20.10
2023-02-05T01:13:12.745Z,16.50
2023-02-05T01:14:12.802Z,20.40
2023-02-05T01:15:12.738Z,19.80
2023-02-05T01:16:12.766Z,21.50
2023-02-05T01:17:12.764Z,20.20
2023-02-05T01:18:12.690Z,18.60
2023-02-05T01:19:12.684Z,21.20
2023-02-05T01:20:12.743Z,21.30
2023-02-05T01:21:12.689Z,20.80
2023-02-05T01:22:12.665Z,19.50
2023-02-05T01:23:12.620Z,19.00
2023-02-05T01:24:12.635Z,22.70
2023-02-05T01:25:12.596Z,19.60
2023-02-05T01:26:12.591Z,22.60
2023-02-05T01:27:12.585Z,21.70
2023-02-05T01:28:12.595Z,22.60
2023-02-05T01:29:12.550Z,21.40
2023-02-05T01:30:12.532Z,23.40
2023-02-05T01:31:12.667Z,25.20
2023-02-05T01:32:12.504Z,26.00
2023-02-05T01:33:12.516Z,23.90
2023-02-05T01:34:12.484Z,17.70
2023-02-05T01:35:12.461Z,24.30
2023-02-05T01:36:12.470Z,23.40
2023-02-05T01:37:12.457Z,22.20
2023-02-05T01:38:12.414Z,22.60
2023-02-05T01:39:12.409Z,27.00
2023-02-05T01:40:12.388Z,23.20
2023-02-05T01:41:12.481Z,24.30
2023-02-05T01:42:12.369Z,24.80
2023-02-05T01:43:12.353Z,22.90
2023-02-05T01:44:12.378Z,24.50
2023-02-05T01:45:12.333Z,21.10
2023-02-05T01:46:12.384Z,23.70
2023-02-05T01:47:12.373Z,29.40
2023-02-05T01:48:12.323Z,24.30
2023-02-05T01:49:12.290Z,26.80
2023-02-05T01:50:12.259Z,27.10
2023-02-05T01:51:12.618Z,26.90
2023-02-05T01:52:12.262Z,27.80
2023-02-05T01:53:12.230Z,22.80
2023-02-05T01:54:12.206Z,23.30
2023-02-05T01:55:12.249Z,21.60
2023-02-05T01:56:12.190Z,27.30
2023-02-05T01:57:12.212Z,25.40
2023-02-05T01:58:12.155Z,21.70
2023-02-05T01:59:12.140Z,20.90
2023-02-05T02:00:12.121Z,24.60
2023-02-05T02:01:12.136Z,21.70
2023-02-05T02:02:12.101Z,24.50
2023-02-05T02:03:12.456Z,23.30
2023-02-05T02:04:12.079Z,19.90
2023-02-05T02:05:12.206Z,24.80
2023-02-05T02:06:12.079Z,23.40
2023-02-05T02:07:12.031Z,22.60
2023-02-05T02:08:12.101Z,22.10
2023-02-05T02:09:12.017Z,23.80
2023-02-05T02:10:12.027Z,18.40
2023-02-05T02:11:12.007Z,25.20
2023-02-05T02:12:11.988Z,20.10
2023-02-05T02:13:11.971Z,20.60
2023-02-05T02:14:11.954Z,27.60
2023-02-05T02:15:11.937Z,23.40
2023-02-05T02:16:12.075Z,19.80
2023-02-05T02:17:11.923Z,24.60
2023-02-05T02:18:11.981Z,28.00
2023-02-05T02:19:11.892Z,20.90
2023-02-05T02:20:11.949Z,28.10
2023-02-05T02:21:11.879Z,23.80
2023-02-05T02:22:11.851Z,23.20
2023-02-05T02:23:11.841Z,20.90
2023-02-05T02:24:11.849Z,26.10
2023-02-05T02:25:11.802Z,25.40
2023-02-05T02:26:11.822Z,22.50
2023-02-05T02:27:11.772Z,21.40
2023-02-05T02:28:11.816Z,21.10
2023-02-05T02:29:11.761Z,21.50
2023-02-05T02:30:11.751Z,20.00
2023-02-05T02:31:11.795Z,22.80
2023-02-05T02:32:11.713Z,27.10
2023-02-05T02:33:11.751Z,24.50
2023-02-05T02:34:11.732Z,29.70
2023-02-05T02:35:11.677Z,26.60
2023-02-05T02:36:11.709Z,23.00
2023-02-05T02:37:11.658Z,28.10
2023-02-05T02:38:11.716Z,25.10
2023-02-05T02:39:11.648Z,21.40
2023-02-05T02:40:11.610Z,25.80
2023-02-05T02:41:11.706Z,20.80
2023-02-05T02:42:11.579Z,27.50
2023-02-05T02:43:11.628Z,20.20
2023-02-05T02:44:11.591Z,27.70
2023-02-05T02:45:11.543Z,20.50
2023-02-05T02:46:11.665Z,23.90
2023-02-05T02:47:11.520Z,21.50
2023-02-05T02:48:11.530Z,23.30
2023-02-05T02:49:11.502Z,23.40
2023-02-05T02:50:11.485Z,24.00
2023-02-05T02:51:11.463Z,23.00
2023-02-05T02:52:11.487Z,28.30
2023-02-05T02:53:11.568Z,23.60
2023-02-05T02:54:11.438Z,23.00
2023-02-05T02:55:11.420Z,28.10
2023-02-05T02:56:11.427Z,23.00
2023-02-05T02:57:11.416Z,23.60
2023-02-05T02:58:11.467Z,27.40
2023-02-05T02:59:11.390Z,18.50
2023-02-05T03:00:11.370Z,22.60
2023-02-05T03:01:11.465Z,27.00
2023-02-05T03:02:11.380Z,27.20
2023-02-05T03:03:11.406Z,26.60
2023-02-05T03:04:11.342Z,28.50
2023-02-05T03:05:11.293Z,24.30
2023-02-05T03:06:11.330Z,25.80
2023-02-05T03:07:11.263Z,31.90
2023-02-05T03:08:11.311Z,29.70
2023-02-05T03:09:11.270Z,21.80
2023-02-05T03:10:11.242Z,27.50
2023-02-05T03:11:11.238Z,22.00
2023-02-05T03:12:11.323Z,25.20
2023-02-05T03:13:11.199Z,28.10
2023-02-05T03:14:11.195Z,23.70
2023-02-05T03:15:11.187Z,27.10
2023-02-05T03:16:11.188Z,23.60
2023-02-05T03:17:11.197Z,27.40
2023-02-05T03:18:11.133Z,23.30
2023-02-05T03:19:11.119Z,25.80
2023-02-05T03:20:11.138Z,30.20
2023-02-05T03:21:11.177Z,22.30
2023-02-05T03:22:11.072Z,25.60
2023-02-05T03:23:11.069Z,29.40
2023-02-05T03:24:11.051Z,21.10
2023-02-05T03:25:11.060Z,23.40
2023-02-05T03:26:11.091Z,22.50
2023-02-05T03:27:11.020Z,25.90
2023-02-05T03:28:11.019Z,19.60
2023-02-05T03:29:10.997Z,18.60
2023-02-05T03:30:11.086Z,25.40
2023-02-05T03:31:10.976Z,22.40
2023-02-05T03:32:10.967Z,24.30
2023-02-05T03:33:10.936Z,20.80
2023-02-05T03:34:10.919Z,25.40
2023-02-05T03:35:10.948Z,22.40
2023-02-05T03:36:10.907Z,18.80
2023-02-05T03:37:10.874Z,22.30
2023-02-05T03:38:10.909Z,30.70
2023-02-05T03:39:10.860Z,23.20
2023-02-05T03:40:10.958Z,24.20
2023-02-05T03:41:10.840Z,25.50
2023-02-05T03:42:10.811Z,27.80
2023-02-05T03:43:10.930Z,20.50
2023-02-05T03:44:10.793Z,21.20
2023-02-05T03:45:10.840Z,28.40
2023-02-05T03:46:10.806Z,24.00
2023-02-05T03:47:10.800Z,22.70
2023-02-05T03:48:10.775Z,25.50
2023-02-05T03:49:10.734Z,21.50
2023-02-05T03:50:10.820Z,20.90
2023-02-05T03:51:10.703Z,21.70
2023-02-05T03:52:10.682Z,28.40
2023-02-05T03:53:10.800Z,25.00
2023-02-05T03:54:10.682Z,22.60
2023-02-05T03:55:10.677Z,22.90
2023-02-05T03:56:10.691Z,25.60
2023-02-05T03:57:10.626Z,27.60
2023-02-05T03:58:10.666Z,24.90
2023-02-05T03:59:10.620Z,25.10
2023-02-05T04:00:10.599Z,29.30
2023-02-05T04:01:10.630Z,23.40
2023-02-05T04:02:10.630Z,25.20
2023-02-05T04:03:10.605Z,24.40
2023-02-05T04:04:10.526Z,25.70
2023-02-05T04:05:10.508Z,24.20
2023-02-05T04:06:10.537Z,22.80
2023-02-05T04:07:10.643Z,23.00
2023-02-05T04:08:10.487Z,27.20
2023-02-05T04:09:10.502Z,24.20
2023-02-05T04:10:10.434Z,29.10
2023-02-05T04:11:10.461Z,27.00
2023-02-05T04:12:10.418Z,24.90
2023-02-05T04:13:11.531Z,25.20
2023-02-05T04:14:10.588Z,26.70
2023-02-05T04:15:10.420Z,24.00
2023-02-05T04:16:10.453Z,25.80
2023-02-05T04:17:10.352Z,25.20
2023-02-05T04:18:10.384Z,24.60
2023-02-05T04:19:10.352Z,25.40
2023-02-05T04:20:10.304Z,25.00
2023-02-05T04:21:10.485Z,25.50
2023-02-05T04:22:10.329Z,25.50
2023-02-05T04:23:10.294Z,24.20
2023-02-05T04:24:10.337Z,31.50
2023-02-05T04:25:10.248Z,27.10
2023-02-05T04:26:10.228Z,26.00
2023-02-05T04:27:10.251Z,33.40
2023-02-05T04:28:10.303Z,28.10
2023-02-05T04:29:10.197Z,24.60
2023-02-05T04:30:10.183Z,27.00
2023-02-05T04:31:10.221Z,26.30
2023-02-05T04:32:10.169Z,28.70
2023-02-05T04:33:10.187Z,31.50
2023-02-05T04:34:10.132Z,23.50
2023-02-05T04:35:10.182Z,25.60
2023-02-05T04:36:10.106Z,29.00
2023-02-05T04:37:10.124Z,29.10
2023-02-05T04:38:10.081Z,30.40
2023-02-05T04:39:10.076Z,33.30
2023-02-05T04:40:10.138Z,29.80
2023-02-05T04:41:10.063Z,27.00
2023-02-05T04:42:10.056Z,29.90
2023-02-05T04:43:10.092Z,32.50
2023-02-05T04:44:10.005Z,27.50
2023-02-05T04:45:10.001Z,27.50
2023-02-05T04:46:09.991Z,30.50
2023-02-05T04:47:10.034Z,27.30
2023-02-05T04:48:09.966Z,26.40
2023-02-05T04:49:09.957Z,29.40
2023-02-05T04:50:09.936Z,31.40
2023-02-05T04:51:09.932Z,28.20
2023-02-05T04:52:09.952Z,25.20
2023-02-05T04:53:09.937Z,29.70
2023-02-05T04:54:09.891Z,30.40
2023-02-05T04:55:09.868Z,29.70
2023-02-05T04:56:09.848Z,28.50
2023-02-05T04:57:09.968Z,28.60
2023-02-05T04:58:09.856Z,24.40
2023-02-05T04:59:09.815Z,30.10
2023-02-05T05:00:09.925Z,31.50
2023-02-05T05:01:09.815Z,26.40
2023-02-05T05:02:09.827Z,23.10
2023-02-05T05:03:09.847Z,36.30
2023-02-05T05:04:09.750Z,34.20
2023-02-05T05:05:09.808Z,29.70
2023-02-05T05:06:09.718Z,27.60
2023-02-05T05:07:09.786Z,29.80
2023-02-05T05:08:09.696Z,27.00
2023-02-05T05:09:09.711Z,29.60
2023-02-05T05:10:09.698Z,32.90
2023-02-05T05:11:09.656Z,31.80
2023-02-05T05:12:09.654Z,31.80
2023-02-05T05:13:09.649Z,30.80
2023-02-05T05:14:09.618Z,32.50
2023-02-05T05:15:09.739Z,38.00
2023-02-05T05:16:09.670Z,29.50
2023-02-05T05:17:09.578Z,32.40
2023-02-05T05:18:09.679Z,34.00
2023-02-05T05:19:09.988Z,33.70
2023-02-05T05:20:09.526Z,33.70
2023-02-05T05:21:09.601Z,38.60
2023-02-05T05:22:09.512Z,35.40
2023-02-05T05:24:19.703Z,34.00
2023-02-05T05:25:20.670Z,36.00
2023-02-05T05:26:20.660Z,37.60
2023-02-05T05:27:20.647Z,31.80
2023-02-05T05:28:20.641Z,28.60
2023-02-05T05:29:20.618Z,31.00
2023-02-05T05:30:20.607Z,33.80
2023-02-05T05:31:20.643Z,38.20
2023-02-05T05:32:20.579Z,36.40
2023-02-05T05:33:20.593Z,36.60
2023-02-05T05:34:20.565Z,38.00
2023-02-05T05:35:20.547Z,35.60
2023-02-05T05:36:20.548Z,38.50
2023-02-05T05:37:20.523Z,38.10
2023-02-05T05:38:20.540Z,35.00
2023-02-05T05:39:20.514Z,30.10
2023-02-05T05:40:20.481Z,33.30
2023-02-05T05:41:20.483Z,36.40
2023-02-05T05:42:20.458Z,38.70
2023-02-05T05:43:20.472Z,34.10
2023-02-05T05:44:20.433Z,36.00
2023-02-05T05:45:20.421Z,32.20
2023-02-05T05:46:20.457Z,41.00
2023-02-05T05:47:20.394Z,37.70
2023-02-05T05:48:20.399Z,36.70
2023-02-05T05:49:20.381Z,40.40
2023-02-05T05:50:20.350Z,36.10
2023-02-05T05:51:20.354Z,33.30
2023-02-05T05:52:20.331Z,39.90
2023-02-05T05:53:20.319Z,35.50
2023-02-05T05:54:20.323Z,35.60
2023-02-05T05:55:20.296Z,42.70
2023-02-05T05:56:20.285Z,39.50
2023-02-05T05:57:20.264Z,40.60
2023-02-05T05:58:20.254Z,43.30
2023-02-05T05:59:20.260Z,45.50
2023-02-05T06:00:20.226Z,39.70
2023-02-05T06:01:20.216Z,39.10
2023-02-05T06:02:20.245Z,39.90
2023-02-05T06:03:20.191Z,40.00
2023-02-05T06:04:20.205Z,42.90
2023-02-05T06:05:20.157Z,38.40
2023-02-05T06:06:20.157Z,43.40
2023-02-05T06:07:20.133Z,41.10
2023-02-05T06:08:20.116Z,44.20
2023-02-05T06:09:20.128Z,43.10
2023-02-05T06:10:20.103Z,48.80
2023-02-05T06:11:20.085Z,40.20
2023-02-05T06:12:20.066Z,39.90
2023-02-05T06:13:20.058Z,43.00
2023-02-05T06:14:20.053Z,39.90
2023-02-05T06:15:20.025Z,51.80
2023-02-05T06:16:20.111Z,46.90
2023-02-05T06:17:20.008Z,42.70
2023-02-05T06:18:21.323Z,51.90
2023-02-05T06:19:20.017Z,43.70
2023-02-05T06:20:20.009Z,48.10
2023-02-05T06:21:19.972Z,48.10
2023-02-05T06:22:19.937Z,50.80
2023-02-05T06:23:19.945Z,51.30
2023-02-05T06:24:19.930Z,46.30
2023-02-05T06:25:19.902Z,43.60
2023-02-05T06:26:19.924Z,47.10
2023-02-05T06:27:19.876Z,42.00
2023-02-05T06:28:19.867Z,44.80
2023-02-05T06:29:19.876Z,54.30
2023-02-05T06:30:19.840Z,50.30
2023-02-05T06:31:19.897Z,47.90
2023-02-05T06:32:19.810Z,51.30
2023-02-05T06:33:19.749Z,47.90
2023-02-05T06:34:19.777Z,48.20
2023-02-05T06:35:19.726Z,46.60
2023-02-05T06:36:19.712Z,50.10
2023-02-05T06:37:19.697Z,50.50
2023-02-05T06:38:19.728Z,50.50
2023-02-05T06:39:19.701Z,50.80
2023-02-05T06:40:19.661Z,46.90
2023-02-05T06:41:19.649Z,49.20
2023-02-05T06:42:19.671Z,45.90
2023-02-05T06:43:19.646Z,49.60
2023-02-05T06:44:19.627Z,84.70
2023-02-05T06:45:19.594Z,110.90
2023-02-05T06:46:19.625Z,145.00
2023-02-05T06:47:19.567Z,120.00
2023-02-05T06:48:19.553Z,119.30
2023-02-05T06:49:19.567Z,125.60
2023-02-05T06:50:19.528Z,143.00
2023-02-05T06:51:19.521Z,171.30
2023-02-05T06:52:19.504Z,170.20
2023-02-05T06:53:19.489Z,183.80
2023-02-05T06:54:19.473Z,168.60
2023-02-05T06:55:19.493Z,151.20
2023-02-05T06:56:19.454Z,121.20
2023-02-05T06:57:19.441Z,177.90
2023-02-05T06:58:19.431Z,130.80
2023-02-05T06:59:19.428Z,178.90
2023-02-05T07:00:19.423Z,159.30
2023-02-05T07:01:19.514Z,131.10
2023-02-05T07:02:19.386Z,135.90
2023-02-05T07:03:19.371Z,107.20
2023-02-05T07:04:19.349Z,90.70
2023-02-05T07:05:19.366Z,72.20
2023-02-05T07:06:19.326Z,91.90
2023-02-05T07:07:19.320Z,97.00
2023-02-05T07:08:19.302Z,92.00
2023-02-05T07:09:19.293Z,73.10
2023-02-05T07:10:19.306Z,80.90
2023-02-05T07:11:19.269Z,99.80
2023-02-05T07:12:19.250Z,123.80
2023-02-05T07:13:19.249Z,134.20
2023-02-05T07:14:19.233Z,119.80
2023-02-05T07:15:19.237Z,111.90
2023-02-05T07:16:19.212Z,122.10
2023-02-05T07:17:19.200Z,119.80
2023-02-05T07:18:19.176Z,112.60
2023-02-05T07:19:19.179Z,126.90
2023-02-05T07:20:19.167Z,98.20
2023-02-05T07:21:19.142Z,91.60
2023-02-05T07:22:19.123Z,77.30
2023-02-05T07:23:19.120Z,64.80
2023-02-05T07:24:19.101Z,54.20
2023-02-05T07:25:19.111Z,69.50
2023-02-05T07:26:19.092Z,57.60
2023-02-05T07:27:19.067Z,68.20
2023-02-05T07:28:19.123Z,94.20
2023-02-05T07:29:19.061Z,107.30
2023-02-05T07:30:19.045Z,163.80
2023-02-05T07:31:19.139Z,149.10
2023-02-05T07:32:18.998Z,88.90
2023-02-05T07:33:19.002Z,115.30
2023-02-05T07:34:18.977Z,80.90
2023-02-05T07:35:19.006Z,91.40
2023-02-05T07:36:18.965Z,137.50
2023-02-05T07:37:21.287Z,154.20
2023-02-05T07:38:18.929Z,160.80
2023-02-05T07:39:18.936Z,191.70
2023-02-05T07:40:18.921Z,197.60
2023-02-05T07:41:18.896Z,186.40
2023-02-05T07:42:18.876Z,237.80
2023-02-05T07:43:18.861Z,231.60
2023-02-05T07:44:18.845Z,237.60
2023-02-05T07:45:18.853Z,220.10
2023-02-05T07:46:18.830Z,212.60
2023-02-05T07:47:18.807Z,203.60
2023-02-05T07:48:18.792Z,239.90
2023-02-05T07:49:18.779Z,216.30
2023-02-05T07:50:18.787Z,229.20
2023-02-05T07:51:18.756Z,207.10
2023-02-05T07:52:18.735Z,205.20
2023-02-05T07:53:18.727Z,222.50
2023-02-05T07:54:18.720Z,235.10
2023-02-05T07:55:18.718Z,256.70
2023-02-05T07:56:18.702Z,273.70
2023-02-05T07:57:18.680Z,293.80
2023-02-05T07:58:18.662Z,255.30
2023-02-05T07:59:18.695Z,278.20
2023-02-05T08:00:18.652Z,260.10
2023-02-05T08:01:18.732Z,289.10
2023-02-05T08:02:18.613Z,289.50
2023-02-05T08:03:18.601Z,279.70
2023-02-05T08:04:18.637Z,267.50
2023-02-05T08:05:18.604Z,261.40
2023-02-05T08:06:18.560Z,259.80
2023-02-05T08:07:18.548Z,295.30
2023-02-05T08:08:18.538Z,344.90
2023-02-05T08:09:18.519Z,304.50
2023-02-05T08:10:18.522Z,301.20
2023-02-05T08:11:18.523Z,308.80
2023-02-05T08:12:18.486Z,204.70
2023-02-05T08:13:18.474Z,266.90
2023-02-05T08:14:18.458Z,219.90
2023-02-05T08:15:18.462Z,195.20
2023-02-05T08:16:18.505Z,179.30
2023-02-05T08:17:18.424Z,222.40
2023-02-05T08:18:18.413Z,257.40
2023-02-05T08:19:18.391Z,290.40
2023-02-05T08:20:18.376Z,283.00
2023-02-05T08:21:18.395Z,248.90
2023-02-05T08:22:18.355Z,283.70
2023-02-05T08:23:18.352Z,315.30
2023-02-05T08:24:18.331Z,240.80
2023-02-05T08:25:18.338Z,338.50
2023-02-05T08:26:18.301Z,228.90
2023-02-05T08:27:18.294Z,236.60
2023-02-05T08:28:18.347Z,210.10
2023-02-05T08:29:18.265Z,165.10
2023-02-05T08:30:18.276Z,102.40
2023-02-05T08:31:18.313Z,110.00
2023-02-05T08:32:18.220Z,163.90
2023-02-05T08:33:18.220Z,182.70
2023-02-05T08:34:20.693Z,174.90
2023-02-05T08:35:18.195Z,208.00
2023-02-05T08:36:18.211Z,220.40
2023-02-05T08:37:18.171Z,205.40
2023-02-05T08:38:18.166Z,196.60
2023-02-05T08:39:18.145Z,169.80
2023-02-05T08:40:18.145Z,193.00
2023-02-05T08:41:18.147Z,149.60
2023-02-05T08:42:18.105Z,167.00
2023-02-05T08:43:18.086Z,159.00
2023-02-05T08:44:18.088Z,183.60
2023-02-05T08:45:18.061Z,132.40
2023-02-05T08:46:18.103Z,142.30
2023-02-05T08:47:18.037Z,131.70
2023-02-05T08:48:18.021Z,118.60
2023-02-05T08:49:18.022Z,145.90
2023-02-05T08:50:17.995Z,150.50
2023-02-05T08:51:17.995Z,182.40
2023-02-05T08:52:17.972Z,168.00
2023-02-05T08:53:17.960Z,188.40
2023-02-05T08:54:17.948Z,180.70
2023-02-05T08:55:17.933Z,210.20
2023-02-05T08:56:20.149Z,205.70
2023-02-05T08:57:17.905Z,233.40
2023-02-05T08:58:17.898Z,254.60
2023-02-05T08:59:17.906Z,240.60
2023-02-05T09:00:17.883Z,290.10
2023-02-05T09:01:18.020Z,266.80
2023-02-05T09:02:17.842Z,251.20
2023-02-05T09:03:17.832Z,258.60
2023-02-05T09:04:17.851Z,290.40
2023-02-05T09:05:17.850Z,219.60
2023-02-05T09:06:17.789Z,250.70
2023-02-05T09:07:17.782Z,207.30
2023-02-05T09:08:17.770Z,208.60
2023-02-05T09:09:17.755Z,187.30
2023-02-05T09:10:17.769Z,164.80
2023-02-05T09:11:17.747Z,174.00
2023-02-05T09:12:17.711Z,143.30
2023-02-05T09:13:17.717Z,108.80
2023-02-05T09:14:17.710Z,152.60
2023-02-05T09:15:17.672Z,121.20
2023-02-05T09:16:17.727Z,104.60
2023-02-05T09:17:17.651Z,84.20
2023-02-05T09:18:17.655Z,84.80
2023-02-05T09:19:17.628Z,89.40
2023-02-05T09:20:17.612Z,86.60
2023-02-05T09:21:17.620Z,78.50
2023-02-05T09:22:17.586Z,84.90
2023-02-05T09:23:17.575Z,110.20
2023-02-05T09:24:17.566Z,120.10
2023-02-05T09:25:17.548Z,103.20
2023-02-05T09:26:17.561Z,101.20
2023-02-05T09:27:17.522Z,89.40
2023-02-05T09:28:17.593Z,93.50
2023-02-05T09:29:17.503Z,98.50
2023-02-05T09:30:17.490Z,84.70
2023-02-05T09:31:17.615Z,79.20
2023-02-05T09:32:17.456Z,83.10
2023-02-05T09:33:17.456Z,80.40
2023-02-05T09:34:17.440Z,96.70
2023-02-05T09:35:17.421Z,85.30
2023-02-05T09:36:17.429Z,91.50
2023-02-05T09:37:17.405Z,91.20
2023-02-05T09:38:17.382Z,88.90
2023-02-05T09:39:36.912Z,88.50
2023-02-05T09:40:21.025Z,80.80
2023-02-05T09:41:17.392Z,82.90
2023-02-05T09:42:17.400Z,86.90
2023-02-05T09:43:17.566Z,75.30
2023-02-05T09:44:17.405Z,83.60
2023-02-05T09:45:17.332Z,75.30
2023-02-05T09:46:17.364Z,79.40
2023-02-05T09:47:17.277Z,76.60
2023-02-05T09:48:17.268Z,74.20
2023-02-05T09:49:17.247Z,70.90
2023-02-05T09:50:17.241Z,65.50
2023-02-05T09:51:17.273Z,68.60
2023-02-05T09:52:17.240Z,71.40
2023-02-05T09:53:17.211Z,77.50
2023-02-05T09:54:17.199Z,72.50
2023-02-05T09:55:17.224Z,69.40
2023-02-05T09:56:17.212Z,63.90
2023-02-05T09:57:17.177Z,72.60
2023-02-05T09:58:17.163Z,72.10
2023-02-05T09:59:17.147Z,76.50
2023-02-05T10:00:17.115Z,73.00
2023-02-05T10:01:17.128Z,73.90
2023-02-05T10:02:17.081Z,75.60
2023-02-05T10:03:17.069Z,70.70
2023-02-05T10:04:17.094Z,72.10
2023-02-05T10:05:17.028Z,67.60
2023-02-05T10:06:17.053Z,77.40
2023-02-05T10:07:17.014Z,74.00
2023-02-05T10:08:17.008Z,78.10
2023-02-05T10:09:16.988Z,72.50
2023-02-05T10:10:16.996Z,71.10
2023-02-05T10:11:16.976Z,67.00
2023-02-05T10:12:16.953Z,72.30
2023-02-05T10:13:16.936Z,69.70
2023-02-05T10:14:16.920Z,68.20
2023-02-05T10:15:16.914Z,62.00
2023-02-05T10:16:17.005Z,66.10
2023-02-05T10:17:16.895Z,66.40
2023-02-05T10:18:16.877Z,54.70
2023-02-05T10:19:16.934Z,66.00
2023-02-05T10:20:16.855Z,63.30
2023-02-05T10:21:16.879Z,58.40
2023-02-05T10:22:16.845Z,63.10
2023-02-05T10:23:16.809Z,56.40
2023-02-05T10:24:16.793Z,56.20
2023-02-05T10:25:16.777Z,61.00
2023-02-05T10:26:16.779Z,48.20
2023-02-05T10:27:16.781Z,57.30
2023-02-05T10:28:16.771Z,52.30
2023-02-05T10:29:16.730Z,55.80
2023-02-05T10:30:16.722Z,55.90
2023-02-05T10:31:16.790Z,49.20
2023-02-05T10:32:16.805Z,51.70
2023-02-05T10:33:16.694Z,53.80
2023-02-05T10:34:16.670Z,57.00
2023-02-05T10:35:16.656Z,55.30
2023-02-05T10:36:16.645Z,48.20
2023-02-05T10:37:16.645Z,51.20
2023-02-05T10:38:16.617Z,52.90
2023-02-05T10:39:16.607Z,53.50
2023-02-05T10:40:16.603Z,51.50
2023-02-05T10:41:16.626Z,48.50
2023-02-05T10:42:16.587Z,45.50
2023-02-05T10:43:16.557Z,38.90
2023-02-05T10:44:16.541Z,40.90
2023-02-05T10:45:18.835Z,42.80
2023-02-05T10:46:16.580Z,34.20
2023-02-05T10:47:16.538Z,29.60
2023-02-05T10:48:16.494Z,30.00
2023-02-05T10:49:16.473Z,28.30
2023-02-05T10:50:16.468Z,26.60
2023-02-05T10:51:16.451Z,32.70
2023-02-05T10:52:16.445Z,27.60
2023-02-05T10:53:16.433Z,26.70
2023-02-05T10:54:16.425Z,25.90
2023-02-05T10:55:16.410Z,25.80
2023-02-05T10:56:16.395Z,28.30
2023-02-05T10:57:16.404Z,29.80
2023-02-05T10:58:16.365Z,26.50
2023-02-05T10:59:16.368Z,26.10
2023-02-05T11:00:16.409Z,27.20
2023-02-05T11:01:16.391Z,25.60
2023-02-05T11:02:16.320Z,28.70
2023-02-05T11:03:16.313Z,26.10
2023-02-05T11:04:16.289Z,27.20
2023-02-05T11:05:16.270Z,27.40
2023-02-05T11:06:16.265Z,23.90
2023-02-05T11:07:16.244Z,25.70
2023-02-05T11:08:16.251Z,23.50
2023-02-05T11:09:16.222Z,24.90
2023-02-05T11:10:16.218Z,19.50
2023-02-05T11:11:16.194Z,21.20
2023-02-05T11:12:16.193Z,22.30
2023-02-05T11:13:16.176Z,19.20
2023-02-05T11:14:16.169Z,20.30
2023-02-05T11:15:16.149Z,21.30
2023-02-05T11:16:16.153Z,21.30
2023-02-05T11:17:16.124Z,22.10
2023-02-05T11:18:16.131Z,22.00
2023-02-05T11:19:16.086Z,21.50
2023-02-05T11:20:16.109Z,19.10
2023-02-05T11:21:16.070Z,20.50
2023-02-05T11:22:16.049Z,22.40
2023-02-05T11:23:16.058Z,23.30
2023-02-05T11:24:16.035Z,23.60
2023-02-05T11:25:16.018Z,26.70
2023-02-05T11:26:16.004Z,20.60
2023-02-05T11:27:15.989Z,21.90
2023-02-05T11:28:16.046Z,23.60
2023-02-05T11:29:15.962Z,21.60
2023-02-05T11:30:15.976Z,22.60
2023-02-05T11:31:15.972Z,23.00
2023-02-05T11:32:16.028Z,22.30
2023-02-05T11:33:15.942Z,18.60
2023-02-05T11:34:15.905Z,20.40
2023-02-05T11:35:15.888Z,17.20
2023-02-05T11:36:15.879Z,18.40
2023-02-05T11:37:15.857Z,20.50
2023-02-05T11:38:15.855Z,19.90
2023-02-05T11:39:15.852Z,17.40
2023-02-05T11:40:15.817Z,18.20
2023-02-05T11:41:15.806Z,17.00
2023-02-05T11:42:15.804Z,17.10
2023-02-05T11:43:15.794Z,17.10
2023-02-05T11:44:15.790Z,16.70
2023-02-05T11:45:15.774Z,15.30
2023-02-05T11:46:15.789Z,15.10
2023-02-05T11:47:15.728Z,15.30
2023-02-05T11:48:15.743Z,14.50
2023-02-05T11:49:15.711Z,16.00
2023-02-05T11:50:17.900Z,14.50
2023-02-05T11:51:15.685Z,12.60
2023-02-05T11:52:15.670Z,13.20
2023-02-05T11:53:15.673Z,12.90
2023-02-05T11:54:15.672Z,15.90
2023-02-05T11:55:15.636Z,13.90
2023-02-05T11:56:15.628Z,14.00
2023-02-05T11:57:15.608Z,14.60
2023-02-05T11:58:17.039Z,13.70
2023-02-05T11:59:15.613Z,14.40
2023-02-05T12:00:15.625Z,12.40
2023-02-05T12:01:15.557Z,10.80
2023-02-05T12:02:15.571Z,11.70
2023-02-05T12:03:15.564Z,11.70
2023-02-05T12:04:15.544Z,9.90
2023-02-05T12:05:15.500Z,6.30
2023-02-05T12:06:15.507Z,5.00
2023-02-05T12:07:15.508Z,5.60
2023-02-05T12:08:15.467Z,5.40
2023-02-05T12:09:15.485Z,6.10
2023-02-05T12:10:15.591Z,6.00
2023-02-05T12:11:15.426Z,6.40
2023-02-05T12:12:15.415Z,5.70
2023-02-05T12:13:15.403Z,6.80
2023-02-05T12:14:15.414Z,5.30
2023-02-05T12:15:15.375Z,4.00
2023-02-05T12:16:15.378Z,4.80
2023-02-05T12:17:15.355Z,4.30
2023-02-05T12:18:15.342Z,4.00
2023-02-05T12:19:15.347Z,3.30
2023-02-05T12:20:15.333Z,6.10
2023-02-05T12:21:15.299Z,5.20
2023-02-05T12:22:15.294Z,3.90
2023-02-05T12:23:15.272Z,2.70
2023-02-05T12:24:15.290Z,4.00
2023-02-05T12:25:15.256Z,3.80
2023-02-05T12:26:15.240Z,1.40
2023-02-05T12:27:15.222Z,2.20
2023-02-05T12:28:15.272Z,1.30
2023-02-05T12:29:15.219Z,3.10
2023-02-05T12:30:15.269Z,2.80
2023-02-05T12:31:15.209Z,2.30
2023-02-05T12:32:15.158Z,1.70
2023-02-05T12:33:15.162Z,1.40
2023-02-05T12:34:15.133Z,2.10
2023-02-05T12:35:15.153Z,1.20
2023-02-05T12:36:15.110Z,1.80
2023-02-05T12:37:15.093Z,1.70
2023-02-05T12:38:21.089Z,1.10
2023-02-05T12:39:15.081Z,2.10
2023-02-05T12:40:15.078Z,1.70
2023-02-05T12:41:15.103Z,2.40
2023-02-05T12:42:15.031Z,1.30
2023-02-05T12:43:15.008Z,1.50
2023-02-05T12:44:14.999Z,2.70
2023-02-05T12:45:15.011Z,1.90
2023-02-05T12:46:15.043Z,1.90
2023-02-05T12:47:14.958Z,1.30
2023-02-05T12:48:14.953Z,1.40
2023-02-05T12:49:14.928Z,1.50
2023-02-05T12:50:14.966Z,1.20